EST,Max TemperatureF,Mean TemperatureF,Min TemperatureF,Max Dew PointF,MeanDew PointF,Min DewpointF,Max Humidity, Mean Humidity, Min Humidity, Max Sea Level PressureIn, Mean Sea Level PressureIn, Min Sea Level PressureIn, Max VisibilityMiles, Mean VisibilityMiles, Min VisibilityMiles, Max Wind SpeedMPH, Mean Wind SpeedMPH, Max Gust SpeedMPH,PrecipitationIn, CloudCover, Events, WindDirDegrees
2013-1-1,34,26,18,31,26,14,92,82,72,30.17,30.08,30.02,9,5,2,12,6,16,T,7,Snow,327
2013-1-2,21,12,3,13,6,1,100,76,51,30.28,30.21,30.16,10,5,0,6,2,8,0.00,0,Fog,220
2013-1-3,32,19,5,24,15,0,80,73,65,30.32,30.26,30.21,10,10,9,17,7,21,0.00,4,,226
2013-1-4,32,25,17,23,17,14,84,71,58,30.36,30.32,30.28,10,9,6,18,9,25,0.00,2,,240
2013-1-5,37,25,13,28,21,10,92,78,64,30.35,30.27,30.14,10,7,2,14,8,17,T,3,Snow,188
2013-1-6,37,29,21,31,25,17,84,77,69,30.37,30.16,30.02,10,8,5,23,11,30,T,7,,252
2013-1-7,34,23,12,25,15,7,100,84,70,30.46,30.37,30.24,9,3,0,15,4,,0.00,1,Fog-Snow,172
2013-1-8,44,32,19,30,25,16,92,77,62,30.29,30.24,30.20,10,8,4,14,8,17,0.00,0,,170
2013-1-9,48,40,32,39,35,31,92,79,66,30.50,30.34,30.19,10,8,2,14,7,17,0.06,2,Rain,228
2013-1-10,48,38,27,42,34,25,92,78,64,30.51,30.30,30.04,10,7,2,16,9,21,0.03,5,Rain,105
2013-1-11,61,54,47,54,51,45,100,82,64,29.97,29.88,29.83,10,8,0,21,12,26,0.53,6,Fog-Rain,192
2013-1-12,65,58,51,61,55,46,100,87,73,29.99,29.88,29.68,10,6,0,18,10,24,1.05,6,Fog-Rain,167
2013-1-13,66,47,27,61,46,37,93,90,86,30.20,29.88,29.65,10,6,1,29,11,36,1.13,8,Rain,311
2013-1-14,26,23,20,25,17,14,100,84,68,30.45,30.37,30.19,10,10,10,17,9,21,0.00,6,,346
2013-1-15,33,28,23,24,20,17,81,71,61,30.39,30.29,30.09,10,10,7,16,9,26,0.00,4,,36
2013-1-16,35,32,29,27,24,21,85,71,56,30.09,30.04,29.98,10,9,5,13,6,15,0.00,5,,250
2013-1-17,43,34,25,31,24,15,78,66,54,30.42,30.21,30.06,10,10,7,22,8,25,0.00,2,,316
2013-1-18,40,31,22,26,21,16,84,66,48,30.51,30.38,30.18,10,10,10,22,11,28,0.00,0,,186
2013-1-19,56,45,34,36,29,23,70,54,38,30.17,30.02,29.87,10,10,10,26,15,33,0.00,0,,205
2013-1-20,47,36,25,36,15,10,70,57,43,30.27,30.16,29.92,10,10,10,31,13,44,0.00,3,,296
2013-1-21,25,19,12,14,7,-4,68,55,41,30.28,30.17,30.10,10,8,2,25,14,35,T,6,Snow,281
2013-1-22,20,14,7,0,-2,-4,76,58,39,30.41,30.34,30.27,10,10,10,18,11,25,0.00,2,,288
2013-1-23,23,18,12,11,4,-1,67,54,41,30.36,30.24,30.11,10,10,10,13,5,21,0.00,7,,234
2013-1-24,26,20,13,12,6,-2,80,56,32,30.60,30.45,30.19,10,10,7,25,9,31,T,1,Snow,28
2013-1-25,28,24,20,19,15,5,84,65,45,30.38,30.13,30.02,10,6,0,15,8,18,0.04,6,Fog-Snow,170
2013-1-26,32,24,16,17,15,11,84,69,54,30.43,30.32,30.15,10,9,7,10,6,12,0.00,1,,343
2013-1-27,40,30,20,37,24,14,92,78,64,30.42,30.28,30.08,10,7,4,18,10,22,0.14,5,Rain,133
2013-1-28,53,47,40,51,46,37,96,91,86,30.11,30.02,29.97,7,3,0,18,11,24,0.13,8,Fog-Rain,183
2013-1-29,66,59,51,57,53,48,96,85,73,29.99,29.84,29.45,10,6,0,29,18,38,0.00,7,Fog,180
2013-1-30,67,49,30,58,43,23,100,83,66,29.61,29.38,29.26,10,8,2,37,17,46,0.77,8,Rain,250
2013-1-31,31,22,13,23,17,3,88,73,58,30.12,29.87,29.65,10,6,0,33,20,44,T,8,Fog-Snow,276